createdAt,value
2019-05-29T00:00:37.138Z,8.13
2019-05-29T00:03:06.363Z,8.10
2019-05-29T00:05:34.791Z,8.09
2019-05-29T00:08:06.171Z,8.07
2019-05-29T00:10:33.703Z,8.04
2019-05-29T00:13:03.166Z,8.00
2019-05-29T00:15:32.052Z,7.98
2019-05-29T00:18:00.875Z,7.97
2019-05-29T00:20:30.499Z,7.95
2019-05-29T00:22:59.302Z,7.92
2019-05-29T00:25:28.169Z,7.89
2019-05-29T00:27:57.974Z,7.86
2019-05-29T00:30:26.767Z,7.86
2019-05-29T00:32:55.696Z,7.82
2019-05-29T00:35:24.539Z,7.79
2019-05-29T00:37:53.406Z,7.76
2019-05-29T00:40:22.189Z,7.72
2019-05-29T00:42:51.508Z,7.69
2019-05-29T00:45:20.394Z,7.67
2019-05-29T00:47:49.305Z,7.65
2019-05-29T00:50:18.118Z,7.62
2019-05-29T00:52:47.000Z,7.59
2019-05-29T00:55:17.122Z,7.58
2019-05-29T00:57:46.903Z,7.56
2019-05-29T01:00:15.919Z,7.55
2019-05-29T01:02:44.811Z,7.55
2019-05-29T01:05:13.922Z,7.52
2019-05-29T01:07:44.565Z,7.51
2019-05-29T01:10:14.599Z,7.48
2019-05-29T01:12:42.404Z,7.47
2019-05-29T01:15:11.279Z,7.47
2019-05-29T01:17:40.036Z,7.47
2019-05-29T01:20:09.279Z,7.43
2019-05-29T01:22:39.192Z,7.42
2019-05-29T01:25:08.192Z,7.40
2019-05-29T01:27:43.349Z,7.38
2019-05-29T01:30:13.622Z,7.37
2019-05-29T01:32:43.404Z,7.35
2019-05-29T01:35:12.257Z,7.35
2019-05-29T01:37:42.199Z,7.33
2019-05-29T01:40:20.011Z,7.30
2019-05-29T01:42:40.021Z,7.28
2019-05-29T01:45:08.971Z,7.29
2019-05-29T01:47:37.771Z,7.31
2019-05-29T01:50:06.609Z,7.28
2019-05-29T01:52:35.465Z,7.26
2019-05-29T01:55:08.015Z,7.28
2019-05-29T01:57:36.816Z,7.24
2019-05-29T02:00:05.893Z,7.21
2019-05-29T02:02:34.706Z,7.20
2019-05-29T02:05:04.712Z,7.17
2019-05-29T02:07:33.693Z,7.15
2019-05-29T02:10:03.291Z,7.15
2019-05-29T02:12:32.815Z,7.12
2019-05-29T02:15:02.403Z,7.08
2019-05-29T02:17:31.206Z,7.06
2019-05-29T02:20:00.067Z,7.06
2019-05-29T02:22:28.852Z,7.02
2019-05-29T02:24:57.686Z,6.99
2019-05-29T02:27:27.411Z,6.95
2019-05-29T02:29:55.427Z,6.91
2019-05-29T02:32:25.694Z,6.91
2019-05-29T02:34:54.499Z,6.89
2019-05-29T02:37:24.412Z,6.89
2019-05-29T02:39:53.932Z,6.86
2019-05-29T02:42:22.994Z,6.85
2019-05-29T02:44:52.704Z,6.84
2019-05-29T02:47:21.728Z,6.82
2019-05-29T02:49:50.416Z,6.79
2019-05-29T02:52:21.925Z,6.78
2019-05-29T02:54:50.820Z,6.77
2019-05-29T02:57:20.711Z,6.73
2019-05-29T02:59:48.440Z,6.68
2019-05-29T03:02:18.907Z,6.65
2019-05-29T03:04:47.732Z,6.63
2019-05-29T03:07:16.634Z,6.61
2019-05-29T03:09:45.508Z,6.61
2019-05-29T03:12:14.349Z,6.61
2019-05-29T03:14:44.138Z,6.60
2019-05-29T03:17:12.953Z,6.61
2019-05-29T03:19:43.447Z,6.59
2019-05-29T03:22:12.894Z,6.57
2019-05-29T03:24:41.882Z,6.57
2019-05-29T03:27:10.689Z,6.59
2019-05-29T03:29:40.448Z,6.59
2019-05-29T03:32:13.675Z,6.60
2019-05-29T03:34:46.565Z,6.63
2019-05-29T03:37:09.035Z,6.63
2019-05-29T03:39:38.624Z,6.63
2019-05-29T03:42:07.245Z,6.66
2019-05-29T03:44:36.178Z,6.66
2019-05-29T03:47:05.277Z,6.69
2019-05-29T03:49:35.221Z,6.70
2019-05-29T03:52:02.953Z,6.72
2019-05-29T03:54:33.755Z,6.75
2019-05-29T03:57:01.742Z,6.78
2019-05-29T03:59:30.728Z,6.81
2019-05-29T04:02:00.098Z,6.83
2019-05-29T04:04:31.158Z,6.88
2019-05-29T04:06:59.310Z,6.91
2019-05-29T04:09:29.172Z,6.95
2019-05-29T04:11:56.934Z,6.99
2019-05-29T04:14:27.375Z,7.05
2019-05-29T04:16:59.702Z,7.10
2019-05-29T04:19:23.471Z,7.16
2019-05-29T04:21:52.329Z,7.24
2019-05-29T04:24:22.163Z,7.35
2019-05-29T04:26:50.978Z,7.48
2019-05-29T04:29:19.826Z,7.67
2019-05-29T04:31:48.652Z,8.51
2019-05-29T04:34:17.481Z,10.40
2019-05-29T04:36:46.303Z,12.59
2019-05-29T04:39:15.095Z,14.63
2019-05-29T04:41:44.112Z,16.42
2019-05-29T04:44:13.309Z,18.07
2019-05-29T04:46:42.080Z,19.56
2019-05-29T04:49:10.883Z,20.89
2019-05-29T04:51:40.995Z,22.08
2019-05-29T04:54:09.904Z,23.16
2019-05-29T04:56:40.536Z,23.90
2019-05-29T04:59:09.400Z,24.83
2019-05-29T05:01:39.301Z,25.70
2019-05-29T05:04:07.174Z,26.53
2019-05-29T05:06:36.014Z,27.24
2019-05-29T05:09:07.009Z,27.39
2019-05-29T05:11:37.573Z,28.15
2019-05-29T05:14:05.571Z,29.31
2019-05-29T05:16:35.775Z,29.79
2019-05-29T05:19:05.042Z,29.62
2019-05-29T05:21:34.070Z,30.25
2019-05-29T05:24:02.742Z,31.02
2019-05-29T05:26:32.134Z,31.50
2019-05-29T05:29:01.424Z,32.14
2019-05-29T05:31:30.341Z,30.57
2019-05-29T05:33:59.069Z,30.31
2019-05-29T05:36:27.905Z,30.81
2019-05-29T05:38:58.327Z,31.11
2019-05-29T05:41:27.187Z,31.71
2019-05-29T05:43:56.046Z,32.26
2019-05-29T05:46:26.632Z,33.00
2019-05-29T05:48:57.797Z,32.89
2019-05-29T05:51:26.629Z,32.91
2019-05-29T05:53:56.782Z,33.52
2019-05-29T05:56:25.635Z,34.29
2019-05-29T05:58:54.480Z,34.81
2019-05-29T06:01:23.293Z,35.21
2019-05-29T06:03:52.287Z,34.94
2019-05-29T06:06:21.099Z,35.01
2019-05-29T06:08:50.026Z,33.63
2019-05-29T06:11:18.835Z,32.64
2019-05-29T06:13:47.676Z,32.10
2019-05-29T06:16:16.483Z,31.97
2019-05-29T06:18:45.366Z,32.09
2019-05-29T06:21:14.256Z,33.19
2019-05-29T06:23:43.404Z,34.50
2019-05-29T06:26:11.929Z,34.70
2019-05-29T06:28:41.293Z,34.40
2019-05-29T06:31:10.823Z,35.15
2019-05-29T06:33:39.788Z,34.76
2019-05-29T06:36:08.715Z,32.87
2019-05-29T06:38:38.142Z,31.21
2019-05-29T06:41:08.330Z,28.55
2019-05-29T06:43:37.855Z,26.40
2019-05-29T06:46:06.095Z,25.73
2019-05-29T06:48:55.133Z,25.38
2019-05-29T06:51:04.066Z,24.60
2019-05-29T06:53:32.905Z,23.88
2019-05-29T06:56:02.658Z,23.28
2019-05-29T06:58:30.514Z,22.80
2019-05-29T07:01:00.688Z,22.29
2019-05-29T07:03:29.889Z,21.72
2019-05-29T07:05:59.131Z,21.81
2019-05-29T07:08:38.113Z,21.03
2019-05-29T07:10:56.816Z,20.95
2019-05-29T07:13:25.679Z,20.91
2019-05-29T07:15:54.879Z,19.54
2019-05-29T07:18:23.771Z,19.60
2019-05-29T07:20:52.672Z,19.30
2019-05-29T07:23:21.586Z,19.51
2019-05-29T07:25:50.943Z,20.01
2019-05-29T07:28:20.079Z,19.98
2019-05-29T07:31:00.356Z,19.56
2019-05-29T07:33:19.010Z,19.76
2019-05-29T07:35:49.319Z,19.73
2019-05-29T07:38:18.643Z,19.80
2019-05-29T07:40:50.117Z,19.85
2019-05-29T07:43:17.059Z,19.59
2019-05-29T07:45:46.634Z,19.47
2019-05-29T07:48:16.251Z,19.62
2019-05-29T07:50:46.240Z,19.49
2019-05-29T07:53:16.402Z,19.49
2019-05-29T07:55:45.296Z,19.37
2019-05-29T07:58:14.112Z,19.87
2019-05-29T08:01:05.041Z,20.21
2019-05-29T08:03:11.776Z,20.09
2019-05-29T08:05:45.025Z,20.71
2019-05-29T08:08:12.584Z,21.15
2019-05-29T08:10:41.754Z,21.36
2019-05-29T08:13:12.165Z,21.71
2019-05-29T08:15:54.156Z,21.95
2019-05-29T08:18:09.821Z,21.80
2019-05-29T08:20:39.818Z,21.85
2019-05-29T08:23:08.817Z,21.96
2019-05-29T08:25:38.344Z,21.72
2019-05-29T08:28:07.853Z,21.94
2019-05-29T08:30:37.752Z,22.15
2019-05-29T08:33:07.733Z,22.26
2019-05-29T08:35:36.947Z,21.70
2019-05-29T08:38:06.349Z,21.43
2019-05-29T08:40:35.272Z,21.05
2019-05-29T08:43:04.133Z,21.35
2019-05-29T08:45:33.004Z,21.33
2019-05-29T08:48:01.819Z,20.99
2019-05-29T08:50:31.156Z,21.08
2019-05-29T08:53:02.577Z,20.97
2019-05-29T08:55:29.686Z,21.18
2019-05-29T08:57:59.189Z,21.24
2019-05-29T09:00:29.116Z,21.45
2019-05-29T09:02:58.079Z,21.80
2019-05-29T09:05:26.921Z,21.90
2019-05-29T09:07:55.777Z,22.00
2019-05-29T09:10:24.650Z,21.87
2019-05-29T09:13:03.578Z,21.84
2019-05-29T09:15:22.367Z,21.71
2019-05-29T09:17:51.209Z,22.08
2019-05-29T09:20:34.049Z,22.52
2019-05-29T09:22:48.941Z,22.59
2019-05-29T09:25:19.452Z,22.84
2019-05-29T09:27:48.333Z,22.95
2019-05-29T09:30:19.682Z,23.20
2019-05-29T09:32:50.879Z,22.91
2019-05-29T09:35:18.211Z,21.95
2019-05-29T09:37:45.028Z,21.98
2019-05-29T09:40:18.995Z,22.21
2019-05-29T09:42:46.968Z,22.10
2019-05-29T09:45:16.617Z,22.31
2019-05-29T09:47:45.935Z,22.19
2019-05-29T09:50:15.609Z,22.12
2019-05-29T09:52:43.874Z,22.29
2019-05-29T09:55:12.748Z,22.55
2019-05-29T09:57:42.513Z,22.81
2019-05-29T10:00:11.910Z,23.20
2019-05-29T10:02:41.690Z,23.29
2019-05-29T10:05:12.941Z,22.72
2019-05-29T10:07:41.780Z,22.49
2019-05-29T10:10:13.709Z,22.86
2019-05-29T10:12:43.967Z,22.90
2019-05-29T10:15:13.617Z,23.21
2019-05-29T10:17:42.463Z,23.08
2019-05-29T10:20:11.960Z,22.57
2019-05-29T10:22:42.477Z,22.01
2019-05-29T10:25:12.065Z,21.50
2019-05-29T10:27:40.970Z,21.49
2019-05-29T10:30:11.603Z,21.02
2019-05-29T10:32:42.448Z,20.90
2019-05-29T10:35:10.745Z,20.96
2019-05-29T10:37:40.417Z,21.28
2019-05-29T10:40:09.289Z,21.39
2019-05-29T10:42:39.009Z,21.51
2019-05-29T10:45:07.828Z,20.82
2019-05-29T10:47:38.301Z,20.61
2019-05-29T10:50:09.053Z,20.75
2019-05-29T10:52:38.001Z,21.09
2019-05-29T10:55:06.956Z,20.85
2019-05-29T10:57:35.818Z,20.50
2019-05-29T11:00:04.952Z,20.97
2019-05-29T11:02:34.409Z,21.35
2019-05-29T11:05:03.211Z,21.47
2019-05-29T11:07:32.392Z,21.63
2019-05-29T11:10:01.324Z,21.20
2019-05-29T11:12:30.120Z,21.32
2019-05-29T11:14:59.408Z,21.30
2019-05-29T11:17:28.203Z,21.27
2019-05-29T11:19:58.259Z,20.99
2019-05-29T11:22:26.784Z,20.81
2019-05-29T11:24:56.629Z,20.79
2019-05-29T11:27:26.162Z,20.21
2019-05-29T11:29:55.248Z,20.58
2019-05-29T11:32:23.782Z,21.06
2019-05-29T11:34:53.840Z,21.17
2019-05-29T11:37:22.783Z,21.28
2019-05-29T11:39:52.575Z,20.62
2019-05-29T11:42:27.461Z,21.03
2019-05-29T11:44:50.866Z,21.41
2019-05-29T11:47:18.693Z,21.82
2019-05-29T11:49:48.156Z,21.58
2019-05-29T11:52:24.415Z,21.92
2019-05-29T11:54:45.935Z,21.76
2019-05-29T11:57:15.560Z,22.02
2019-05-29T11:59:44.741Z,22.21
2019-05-29T12:02:13.564Z,22.55
2019-05-29T12:04:42.404Z,22.94
2019-05-29T12:07:12.473Z,23.21
2019-05-29T12:09:41.325Z,22.46
2019-05-29T12:12:10.206Z,21.73
2019-05-29T12:14:57.972Z,22.15
2019-05-29T12:17:08.598Z,22.56
2019-05-29T12:19:37.445Z,22.73
2019-05-29T12:22:06.888Z,22.64
2019-05-29T12:24:36.666Z,22.98
2019-05-29T12:27:06.785Z,23.26
2019-05-29T12:29:35.667Z,23.27
2019-05-29T12:32:09.741Z,23.16
2019-05-29T12:34:33.501Z,23.31
2019-05-29T12:37:03.748Z,23.56
2019-05-29T12:39:31.300Z,23.70
2019-05-29T12:42:01.813Z,23.81
2019-05-29T12:44:30.418Z,23.51
2019-05-29T12:46:59.804Z,23.55
2019-05-29T12:49:32.068Z,23.83
2019-05-29T12:52:02.049Z,23.94
2019-05-29T12:54:29.869Z,23.77
2019-05-29T12:57:00.035Z,23.76
2019-05-29T12:59:30.288Z,23.79
2019-05-29T13:02:00.703Z,23.94
2019-05-29T13:04:29.686Z,24.00
2019-05-29T13:06:58.666Z,24.18
2019-05-29T13:09:27.581Z,24.38
2019-05-29T13:11:56.544Z,24.44
2019-05-29T13:14:25.212Z,24.65
2019-05-29T13:16:54.751Z,24.80
2019-05-29T13:19:27.767Z,24.69
2019-05-29T13:21:57.300Z,24.34
2019-05-29T13:24:25.875Z,23.73
2019-05-29T13:26:55.636Z,23.48
2019-05-29T13:29:25.269Z,23.52
2019-05-29T13:31:56.095Z,23.75
2019-05-29T13:34:24.259Z,23.96
2019-05-29T13:36:59.780Z,24.04
2019-05-29T13:39:23.882Z,23.70
2019-05-29T13:41:53.407Z,23.88
2019-05-29T13:44:22.264Z,24.30
2019-05-29T13:46:51.679Z,24.63
2019-05-29T13:49:22.041Z,24.88
2019-05-29T13:51:50.954Z,24.87
2019-05-29T13:54:19.788Z,24.83
2019-05-29T13:56:48.656Z,24.99
2019-05-29T13:59:17.451Z,25.08
2019-05-29T14:01:48.592Z,25.00
2019-05-29T14:04:15.678Z,25.20
2019-05-29T14:06:45.964Z,25.31
2019-05-29T14:09:15.635Z,24.80
2019-05-29T14:11:44.535Z,24.39
2019-05-29T14:14:13.828Z,24.26
2019-05-29T14:16:42.307Z,24.28
2019-05-29T14:19:13.431Z,24.46
2019-05-29T14:21:42.242Z,24.25
2019-05-29T14:24:26.193Z,24.33
2019-05-29T14:26:41.759Z,24.43
2019-05-29T14:29:11.729Z,24.35
2019-05-29T14:31:41.177Z,24.33
2019-05-29T14:34:11.098Z,24.23
2019-05-29T14:36:40.357Z,24.26
2019-05-29T14:39:09.990Z,24.47
2019-05-29T14:41:39.415Z,24.43
2019-05-29T14:44:09.981Z,24.38
2019-05-29T14:46:37.824Z,24.30
2019-05-29T14:49:06.701Z,24.23
2019-05-29T14:51:35.613Z,24.04
2019-05-29T14:54:04.791Z,23.65
2019-05-29T14:56:33.575Z,23.60
2019-05-29T14:59:03.262Z,23.57
2019-05-29T15:01:31.327Z,23.54
2019-05-29T15:04:01.326Z,23.42
2019-05-29T15:06:30.891Z,23.04
2019-05-29T15:08:59.691Z,23.17
2019-05-29T15:11:29.527Z,23.69
2019-05-29T15:13:58.412Z,24.21
2019-05-29T15:16:28.016Z,24.49
2019-05-29T15:18:58.465Z,24.54
2019-05-29T15:21:28.056Z,24.58
2019-05-29T15:23:58.093Z,24.68
2019-05-29T15:26:30.747Z,24.81
2019-05-29T15:29:00.654Z,24.86
2019-05-29T15:31:30.004Z,24.94
2019-05-29T15:33:58.859Z,24.79
2019-05-29T15:36:28.114Z,24.67
2019-05-29T15:38:57.064Z,24.57
2019-05-29T15:41:25.872Z,24.53
2019-05-29T15:43:54.747Z,24.62
2019-05-29T15:46:23.662Z,24.61
2019-05-29T15:48:52.487Z,24.02
2019-05-29T15:51:21.935Z,23.86
2019-05-29T15:53:51.128Z,23.69
2019-05-29T15:56:27.377Z,23.61
2019-05-29T15:58:49.434Z,23.70
2019-05-29T16:01:18.365Z,23.78
2019-05-29T16:03:47.203Z,23.79
2019-05-29T16:06:17.950Z,23.75
2019-05-29T16:08:48.156Z,23.32
2019-05-29T16:11:17.055Z,23.35
2019-05-29T16:13:47.495Z,23.45
2019-05-29T16:16:17.318Z,23.45
2019-05-29T16:18:47.180Z,23.34
2019-05-29T16:21:16.606Z,23.23
2019-05-29T16:23:46.779Z,23.20
2019-05-29T16:26:15.631Z,23.26
2019-05-29T16:28:44.548Z,23.36
2019-05-29T16:31:14.891Z,23.43
2019-05-29T16:33:43.415Z,23.57
2019-05-29T16:36:14.482Z,23.58
2019-05-29T16:38:42.580Z,23.66
2019-05-29T16:41:11.607Z,23.75
2019-05-29T16:43:40.938Z,23.75
2019-05-29T16:46:09.816Z,23.75
2019-05-29T16:48:39.828Z,23.67
2019-05-29T16:51:10.364Z,23.52
2019-05-29T16:53:39.245Z,23.53
2019-05-29T16:56:08.639Z,23.56
2019-05-29T16:58:39.943Z,23.51
2019-05-29T17:01:08.864Z,23.52
2019-05-29T17:03:37.701Z,23.50
2019-05-29T17:06:07.050Z,23.42
2019-05-29T17:08:36.069Z,23.25
2019-05-29T17:11:05.214Z,23.22
2019-05-29T17:13:34.490Z,23.21
2019-05-29T17:16:03.304Z,23.04
2019-05-29T17:18:32.969Z,22.77
2019-05-29T17:21:01.780Z,22.60
2019-05-29T17:23:32.963Z,22.44
2019-05-29T17:26:10.827Z,22.25
2019-05-29T17:28:31.369Z,22.08
2019-05-29T17:31:02.319Z,22.02
2019-05-29T17:33:29.608Z,21.98
2019-05-29T17:36:00.334Z,21.94
2019-05-29T17:38:31.860Z,21.90
2019-05-29T17:41:01.415Z,21.84
2019-05-29T17:43:30.256Z,21.86
2019-05-29T17:45:59.570Z,21.92
2019-05-29T17:48:29.130Z,21.92
2019-05-29T17:50:58.078Z,21.85
2019-05-29T17:53:26.989Z,21.78
2019-05-29T17:55:55.904Z,21.78
2019-05-29T17:58:25.317Z,21.73
2019-05-29T18:00:54.105Z,21.53
2019-05-29T18:03:22.887Z,21.33
2019-05-29T18:05:52.575Z,21.19
2019-05-29T18:08:25.010Z,21.12
2019-05-29T18:10:52.719Z,20.99
2019-05-29T18:13:23.338Z,20.90
2019-05-29T18:15:52.883Z,20.78
2019-05-29T18:18:21.723Z,20.69
2019-05-29T18:20:50.592Z,20.56
2019-05-29T18:23:20.066Z,20.51
2019-05-29T18:25:49.431Z,20.44
2019-05-29T18:28:21.932Z,20.32
2019-05-29T18:30:49.861Z,20.30
2019-05-29T18:33:20.552Z,20.27
2019-05-29T18:35:48.779Z,20.22
2019-05-29T18:38:18.152Z,20.19
2019-05-29T18:40:47.897Z,20.09
2019-05-29T18:43:17.357Z,19.95
2019-05-29T18:45:47.428Z,19.85
2019-05-29T18:48:18.456Z,19.76
2019-05-29T18:50:47.233Z,19.67
2019-05-29T18:53:16.780Z,19.56
2019-05-29T18:55:46.387Z,19.49
2019-05-29T18:58:17.464Z,19.43
2019-05-29T19:00:47.127Z,19.37
2019-05-29T19:03:16.111Z,19.30
2019-05-29T19:05:46.686Z,19.24
2019-05-29T19:08:17.225Z,19.19
2019-05-29T19:10:46.034Z,19.15
2019-05-29T19:13:16.007Z,19.10
2019-05-29T19:15:45.057Z,19.06
2019-05-29T19:18:16.814Z,18.97
2019-05-29T19:20:46.371Z,18.90
2019-05-29T19:23:16.075Z,18.80
2019-05-29T19:25:45.800Z,18.67
2019-05-29T19:28:15.656Z,18.64
2019-05-29T19:30:44.802Z,18.55
2019-05-29T19:33:14.411Z,18.45
2019-05-29T19:35:43.470Z,18.37
2019-05-29T19:38:13.192Z,18.28
2019-05-29T19:40:42.123Z,18.23
2019-05-29T19:43:12.072Z,18.18
2019-05-29T19:45:41.147Z,18.10
2019-05-29T19:48:10.026Z,18.03
2019-05-29T19:50:39.018Z,17.93
2019-05-29T19:53:08.649Z,17.85
2019-05-29T19:55:38.346Z,17.77
2019-05-29T19:58:07.399Z,17.70
2019-05-29T20:00:38.372Z,17.61
2019-05-29T20:03:07.696Z,17.52
2019-05-29T20:05:37.556Z,17.45
2019-05-29T20:08:07.055Z,17.42
2019-05-29T20:10:37.586Z,17.39
2019-05-29T20:13:05.806Z,17.37
2019-05-29T20:15:36.066Z,17.36
2019-05-29T20:18:05.716Z,17.36
2019-05-29T20:20:34.625Z,17.36
2019-05-29T20:23:03.409Z,17.37
2019-05-29T20:25:33.455Z,17.38
2019-05-29T20:28:06.392Z,17.39
2019-05-29T20:30:34.283Z,17.38
2019-05-29T20:33:03.156Z,17.35
2019-05-29T20:35:33.346Z,17.35
2019-05-29T20:38:02.239Z,17.33
2019-05-29T20:40:31.103Z,17.33
2019-05-29T20:43:01.292Z,17.29
2019-05-29T20:45:31.431Z,17.29
2019-05-29T20:48:00.337Z,17.29
2019-05-29T20:50:30.914Z,17.28
2019-05-29T20:52:59.427Z,17.27
2019-05-29T20:55:28.289Z,17.24
2019-05-29T20:57:57.268Z,17.24
2019-05-29T21:00:26.681Z,17.25
2019-05-29T21:02:55.581Z,17.26
2019-05-29T21:05:24.492Z,17.26
2019-05-29T21:07:53.386Z,17.27
2019-05-29T21:10:22.220Z,17.27
2019-05-29T21:12:51.097Z,17.28
2019-05-29T21:15:21.327Z,17.26
2019-05-29T21:17:50.479Z,17.26
2019-05-29T21:20:20.037Z,17.26
2019-05-29T21:22:48.969Z,17.26
2019-05-29T21:25:19.679Z,17.27
2019-05-29T21:27:50.283Z,17.25
2019-05-29T21:30:23.960Z,17.27
2019-05-29T21:32:54.549Z,17.26
2019-05-29T21:35:23.699Z,17.27
2019-05-29T21:37:53.109Z,17.26
2019-05-29T21:40:21.921Z,17.24
2019-05-29T21:42:50.840Z,17.22
2019-05-29T21:45:19.905Z,17.20
2019-05-29T21:47:49.535Z,17.18
2019-05-29T21:50:18.428Z,17.18
2019-05-29T21:52:47.682Z,17.18
2019-05-29T21:55:16.266Z,17.16
2019-05-29T21:57:48.727Z,17.15
2019-05-29T22:00:18.189Z,17.16
2019-05-29T22:02:48.573Z,17.14
2019-05-29T22:05:17.836Z,17.12
2019-05-29T22:07:47.309Z,17.10
2019-05-29T22:10:16.120Z,17.09
2019-05-29T22:12:46.640Z,17.09
2019-05-29T22:15:15.631Z,17.08
2019-05-29T22:17:45.700Z,17.07
2019-05-29T22:20:16.338Z,17.07
2019-05-29T22:22:45.353Z,17.07
2019-05-29T22:25:14.740Z,17.07
2019-05-29T22:27:44.232Z,17.07
2019-05-29T22:30:13.780Z,17.08
2019-05-29T22:32:44.484Z,17.06
2019-05-29T22:35:13.902Z,17.06
2019-05-29T22:37:42.820Z,17.05
2019-05-29T22:40:12.175Z,17.02
2019-05-29T22:42:43.214Z,17.00
2019-05-29T22:45:13.219Z,17.00
2019-05-29T22:47:42.033Z,16.99
2019-05-29T22:50:11.878Z,16.97
2019-05-29T22:52:42.671Z,16.94
2019-05-29T22:55:14.038Z,16.92
2019-05-29T22:57:43.495Z,16.88
2019-05-29T23:00:12.324Z,16.87
2019-05-29T23:02:41.733Z,16.86
2019-05-29T23:05:11.731Z,16.87
2019-05-29T23:07:40.602Z,16.85
2019-05-29T23:10:09.450Z,16.83
2019-05-29T23:12:39.425Z,16.83
2019-05-29T23:15:09.208Z,16.83
2019-05-29T23:17:38.637Z,16.79
2019-05-29T23:20:08.777Z,16.79
2019-05-29T23:22:39.377Z,16.79
2019-05-29T23:25:08.818Z,16.79
2019-05-29T23:27:38.346Z,16.75
2019-05-29T23:30:07.202Z,16.76
2019-05-29T23:32:36.683Z,16.74
2019-05-29T23:35:07.555Z,16.73
2019-05-29T23:37:36.826Z,16.72
2019-05-29T23:40:06.528Z,16.71
2019-05-29T23:42:36.081Z,16.69
2019-05-29T23:45:05.651Z,16.68
2019-05-29T23:47:35.187Z,16.65
2019-05-29T23:50:04.906Z,16.65
2019-05-29T23:52:34.595Z,16.63
2019-05-29T23:55:04.179Z,16.63
2019-05-29T23:57:33.659Z,16.63
